sensor_id;sensor_type;location;lat;lon;timestamp;P1;durP1;ratioP1;P2;durP2;ratioP2
37305;SDS011;23193;42.656;21.170;2024-02-15T00:01:17;62.00;;;31.25;;
37305;SDS011;23193;42.656;21.170;2024-02-15T00:03:45;56.28;;;30.17;;
37305;SDS011;23193;42.656;21.170;2024-02-15T00:06:13;53.65;;;28.55;;
37305;SDS011;23193;42.656;21.170;2024-02-15T00:08:41;50.50;;;28.20;;
37305;SDS011;23193;42.656;21.170;2024-02-15T00:11:09;61.60;;;29.92;;
37305;SDS011;23193;42.656;21.170;2024-02-15T00:13:37;59.00;;;27.67;;
37305;SDS011;23193;42.656;21.170;2024-02-15T00:16:05;53.78;;;27.65;;
37305;SDS011;23193;42.656;21.170;2024-02-15T00:18:36;53.92;;;26.52;;
37305;SDS011;23193;42.656;21.170;2024-02-15T00:21:04;58.15;;;29.80;;
37305;SDS011;23193;42.656;21.170;2024-02-15T00:23:32;48.67;;;27.73;;
37305;SDS011;23193;42.656;21.170;2024-02-15T00:26:02;47.03;;;26.60;;
37305;SDS011;23193;42.656;21.170;2024-02-15T00:28:30;56.67;;;29.77;;
37305;SDS011;23193;42.656;21.170;2024-02-15T00:30:57;49.30;;;25.17;;
37305;SDS011;23193;42.656;21.170;2024-02-15T00:33:25;42.33;;;24.33;;
37305;SDS011;23193;42.656;21.170;2024-02-15T00:35:53;58.90;;;29.58;;
37305;SDS011;23193;42.656;21.170;2024-02-15T00:38:21;47.17;;;23.95;;
37305;SDS011;23193;42.656;21.170;2024-02-15T00:40:49;47.30;;;25.02;;
37305;SDS011;23193;42.656;21.170;2024-02-15T00:43:16;50.63;;;28.08;;
37305;SDS011;23193;42.656;21.170;2024-02-15T00:45:44;44.15;;;25.50;;
37305;SDS011;23193;42.656;21.170;2024-02-15T00:51:05;47.55;;;26.38;;
37305;SDS011;23193;42.656;21.170;2024-02-15T00:53:33;46.30;;;24.02;;
37305;SDS011;23193;42.656;21.170;2024-02-15T00:56:00;46.60;;;24.73;;
37305;SDS011;23193;42.656;21.170;2024-02-15T00:58:28;46.15;;;24.10;;
37305;SDS011;23193;42.656;21.170;2024-02-15T01:00:56;42.88;;;23.90;;
37305;SDS011;23193;42.656;21.170;2024-02-15T01:03:24;43.45;;;24.83;;
37305;SDS011;23193;42.656;21.170;2024-02-15T01:05:51;44.13;;;24.42;;
37305;SDS011;23193;42.656;21.170;2024-02-15T01:08:19;42.42;;;24.20;;
37305;SDS011;23193;42.656;21.170;2024-02-15T01:10:48;47.70;;;25.52;;
37305;SDS011;23193;42.656;21.170;2024-02-15T01:13:15;39.22;;;23.23;;
37305;SDS011;23193;42.656;21.170;2024-02-15T01:15:43;48.17;;;25.90;;
37305;SDS011;23193;42.656;21.170;2024-02-15T01:18:11;45.63;;;26.92;;
37305;SDS011;23193;42.656;21.170;2024-02-15T01:23:35;44.90;;;27.35;;
37305;SDS011;23193;42.656;21.170;2024-02-15T01:26:04;47.08;;;24.50;;
37305;SDS011;23193;42.656;21.170;2024-02-15T01:31:25;44.38;;;24.70;;
37305;SDS011;23193;42.656;21.170;2024-02-15T01:33:52;48.15;;;25.48;;
37305;SDS011;23193;42.656;21.170;2024-02-15T01:36:20;55.42;;;27.08;;
37305;SDS011;23193;42.656;21.170;2024-02-15T01:38:48;49.63;;;27.63;;
37305;SDS011;23193;42.656;21.170;2024-02-15T01:41:16;49.00;;;26.40;;
37305;SDS011;23193;42.656;21.170;2024-02-15T01:43:44;53.03;;;26.73;;
37305;SDS011;23193;42.656;21.170;2024-02-15T01:46:13;53.35;;;27.45;;
37305;SDS011;23193;42.656;21.170;2024-02-15T01:48:41;65.75;;;31.88;;
37305;SDS011;23193;42.656;21.170;2024-02-15T01:51:11;63.65;;;32.00;;
37305;SDS011;23193;42.656;21.170;2024-02-15T01:53:44;49.40;;;25.70;;
37305;SDS011;23193;42.656;21.170;2024-02-15T01:56:13;46.90;;;25.25;;
37305;SDS011;23193;42.656;21.170;2024-02-15T01:58:42;49.90;;;25.75;;
37305;SDS011;23193;42.656;21.170;2024-02-15T02:01:10;49.00;;;26.00;;
37305;SDS011;23193;42.656;21.170;2024-02-15T02:03:39;48.00;;;25.92;;
37305;SDS011;23193;42.656;21.170;2024-02-15T02:06:07;53.38;;;27.08;;
37305;SDS011;23193;42.656;21.170;2024-02-15T02:08:36;48.17;;;26.13;;
37305;SDS011;23193;42.656;21.170;2024-02-15T02:11:04;60.80;;;31.88;;
37305;SDS011;23193;42.656;21.170;2024-02-15T02:13:32;63.15;;;31.08;;
37305;SDS011;23193;42.656;21.170;2024-02-15T02:15:59;66.10;;;31.58;;
37305;SDS011;23193;42.656;21.170;2024-02-15T02:18:27;66.93;;;32.90;;
37305;SDS011;23193;42.656;21.170;2024-02-15T02:20:55;63.65;;;32.85;;
37305;SDS011;23193;42.656;21.170;2024-02-15T02:26:18;84.85;;;36.00;;
37305;SDS011;23193;42.656;21.170;2024-02-15T02:28:48;74.68;;;34.90;;
37305;SDS011;23193;42.656;21.170;2024-02-15T02:31:16;56.75;;;31.23;;
37305;SDS011;23193;42.656;21.170;2024-02-15T02:33:47;81.82;;;38.50;;
37305;SDS011;23193;42.656;21.170;2024-02-15T02:36:15;71.82;;;35.92;;
37305;SDS011;23193;42.656;21.170;2024-02-15T02:41:37;66.00;;;32.92;;
37305;SDS011;23193;42.656;21.170;2024-02-15T02:44:04;63.90;;;31.30;;
37305;SDS011;23193;42.656;21.170;2024-02-15T02:46:32;57.42;;;29.55;;
37305;SDS011;23193;42.656;21.170;2024-02-15T02:49:00;62.70;;;29.60;;
37305;SDS011;23193;42.656;21.170;2024-02-15T02:51:28;61.38;;;28.30;;
37305;SDS011;23193;42.656;21.170;2024-02-15T02:53:55;59.03;;;30.20;;
37305;SDS011;23193;42.656;21.170;2024-02-15T02:56:22;66.75;;;32.90;;
37305;SDS011;23193;42.656;21.170;2024-02-15T02:58:48;63.08;;;32.83;;
37305;SDS011;23193;42.656;21.170;2024-02-15T03:01:16;59.58;;;31.90;;
37305;SDS011;23193;42.656;21.170;2024-02-15T03:03:44;63.53;;;30.52;;
37305;SDS011;23193;42.656;21.170;2024-02-15T03:06:12;63.08;;;31.20;;
37305;SDS011;23193;42.656;21.170;2024-02-15T03:08:39;60.90;;;31.65;;
37305;SDS011;23193;42.656;21.170;2024-02-15T03:11:06;55.60;;;30.10;;
37305;SDS011;23193;42.656;21.170;2024-02-15T03:13:33;53.65;;;28.90;;
37305;SDS011;23193;42.656;21.170;2024-02-15T03:16:01;61.92;;;29.70;;
37305;SDS011;23193;42.656;21.170;2024-02-15T03:18:28;53.08;;;30.17;;
37305;SDS011;23193;42.656;21.170;2024-02-15T03:20:55;54.55;;;30.40;;
37305;SDS011;23193;42.656;21.170;2024-02-15T03:23:23;57.28;;;29.88;;
37305;SDS011;23193;42.656;21.170;2024-02-15T03:25:50;58.80;;;30.42;;
37305;SDS011;23193;42.656;21.170;2024-02-15T03:28:17;56.88;;;29.23;;
37305;SDS011;23193;42.656;21.170;2024-02-15T03:30:45;55.05;;;29.73;;
37305;SDS011;23193;42.656;21.170;2024-02-15T03:33:12;56.45;;;31.70;;
37305;SDS011;23193;42.656;21.170;2024-02-15T03:35:40;86.65;;;38.80;;
37305;SDS011;23193;42.656;21.170;2024-02-15T03:38:08;70.20;;;35.53;;
37305;SDS011;23193;42.656;21.170;2024-02-15T03:40:35;67.15;;;34.22;;
37305;SDS011;23193;42.656;21.170;2024-02-15T03:43:04;67.25;;;34.67;;
37305;SDS011;23193;42.656;21.170;2024-02-15T03:45:34;70.97;;;37.10;;
37305;SDS011;23193;42.656;21.170;2024-02-15T03:48:01;66.50;;;36.03;;
37305;SDS011;23193;42.656;21.170;2024-02-15T03:50:28;69.20;;;36.50;;
37305;SDS011;23193;42.656;21.170;2024-02-15T03:52:55;74.28;;;35.17;;
37305;SDS011;23193;42.656;21.170;2024-02-15T03:55:22;65.60;;;36.53;;
37305;SDS011;23193;42.656;21.170;2024-02-15T03:57:52;61.60;;;32.13;;
37305;SDS011;23193;42.656;21.170;2024-02-15T04:00:22;69.63;;;36.58;;
37305;SDS011;23193;42.656;21.170;2024-02-15T04:02:51;78.07;;;37.03;;
37305;SDS011;23193;42.656;21.170;2024-02-15T04:05:19;75.28;;;36.08;;
37305;SDS011;23193;42.656;21.170;2024-02-15T04:07:49;78.50;;;39.05;;
37305;SDS011;23193;42.656;21.170;2024-02-15T04:10:16;78.65;;;38.63;;
37305;SDS011;23193;42.656;21.170;2024-02-15T04:12:53;78.10;;;38.08;;
37305;SDS011;23193;42.656;21.170;2024-02-15T04:15:21;66.65;;;37.15;;
37305;SDS011;23193;42.656;21.170;2024-02-15T04:17:48;67.88;;;36.90;;
37305;SDS011;23193;42.656;21.170;2024-02-15T04:20:15;74.25;;;37.35;;
37305;SDS011;23193;42.656;21.170;2024-02-15T04:22:44;73.80;;;37.30;;
37305;SDS011;23193;42.656;21.170;2024-02-15T04:25:11;65.88;;;34.33;;
37305;SDS011;23193;42.656;21.170;2024-02-15T04:27:45;64.93;;;35.63;;
37305;SDS011;23193;42.656;21.170;2024-02-15T04:30:16;74.07;;;33.97;;
37305;SDS011;23193;42.656;21.170;2024-02-15T04:32:44;59.70;;;33.33;;
37305;SDS011;23193;42.656;21.170;2024-02-15T04:35:12;67.03;;;33.45;;
37305;SDS011;23193;42.656;21.170;2024-02-15T04:37:41;71.15;;;34.40;;
37305;SDS011;23193;42.656;21.170;2024-02-15T04:40:08;64.15;;;33.95;;
37305;SDS011;23193;42.656;21.170;2024-02-15T04:42:39;57.65;;;32.83;;
37305;SDS011;23193;42.656;21.170;2024-02-15T04:45:08;65.78;;;35.58;;
37305;SDS011;23193;42.656;21.170;2024-02-15T04:47:49;63.17;;;34.58;;
37305;SDS011;23193;42.656;21.170;2024-02-15T04:50:19;67.50;;;34.25;;
37305;SDS011;23193;42.656;21.170;2024-02-15T04:52:48;73.00;;;35.78;;
37305;SDS011;23193;42.656;21.170;2024-02-15T04:55:17;65.70;;;35.15;;
37305;SDS011;23193;42.656;21.170;2024-02-15T04:57:45;63.75;;;34.90;;
37305;SDS011;23193;42.656;21.170;2024-02-15T05:00:14;70.10;;;36.08;;
37305;SDS011;23193;42.656;21.170;2024-02-15T05:02:42;69.00;;;34.55;;
37305;SDS011;23193;42.656;21.170;2024-02-15T05:05:10;60.38;;;33.92;;
37305;SDS011;23193;42.656;21.170;2024-02-15T05:07:41;65.15;;;34.63;;
37305;SDS011;23193;42.656;21.170;2024-02-15T05:10:08;71.10;;;35.15;;
37305;SDS011;23193;42.656;21.170;2024-02-15T05:12:39;65.65;;;33.22;;
37305;SDS011;23193;42.656;21.170;2024-02-15T05:15:09;63.63;;;34.42;;
37305;SDS011;23193;42.656;21.170;2024-02-15T05:17:39;72.05;;;36.55;;
37305;SDS011;23193;42.656;21.170;2024-02-15T05:20:09;79.43;;;36.78;;
37305;SDS011;23193;42.656;21.170;2024-02-15T05:22:41;64.38;;;35.20;;
37305;SDS011;23193;42.656;21.170;2024-02-15T05:25:17;71.18;;;36.85;;
37305;SDS011;23193;42.656;21.170;2024-02-15T05:27:52;69.25;;;36.40;;
37305;SDS011;23193;42.656;21.170;2024-02-15T05:30:21;81.63;;;36.40;;
37305;SDS011;23193;42.656;21.170;2024-02-15T05:32:50;63.67;;;36.33;;
37305;SDS011;23193;42.656;21.170;2024-02-15T05:35:17;66.55;;;33.60;;
37305;SDS011;23193;42.656;21.170;2024-02-15T05:37:44;63.80;;;34.70;;
37305;SDS011;23193;42.656;21.170;2024-02-15T05:40:13;73.68;;;35.45;;
37305;SDS011;23193;42.656;21.170;2024-02-15T05:42:44;63.17;;;33.30;;
37305;SDS011;23193;42.656;21.170;2024-02-15T05:47:52;66.80;;;32.03;;
37305;SDS011;23193;42.656;21.170;2024-02-15T05:50:20;59.35;;;32.08;;
37305;SDS011;23193;42.656;21.170;2024-02-15T05:52:48;71.53;;;35.08;;
37305;SDS011;23193;42.656;21.170;2024-02-15T05:55:15;60.00;;;32.20;;
37305;SDS011;23193;42.656;21.170;2024-02-15T05:57:44;64.28;;;32.70;;
37305;SDS011;23193;42.656;21.170;2024-02-15T06:00:11;71.07;;;35.80;;
37305;SDS011;23193;42.656;21.170;2024-02-15T06:02:49;80.07;;;36.90;;
37305;SDS011;23193;42.656;21.170;2024-02-15T06:05:17;70.65;;;36.80;;
37305;SDS011;23193;42.656;21.170;2024-02-15T06:07:45;75.78;;;39.13;;
37305;SDS011;23193;42.656;21.170;2024-02-15T06:10:14;80.53;;;40.45;;
37305;SDS011;23193;42.656;21.170;2024-02-15T06:12:42;84.38;;;41.40;;
37305;SDS011;23193;42.656;21.170;2024-02-15T06:15:10;90.43;;;40.63;;
37305;SDS011;23193;42.656;21.170;2024-02-15T06:17:43;73.25;;;40.28;;
37305;SDS011;23193;42.656;21.170;2024-02-15T06:20:14;74.43;;;39.38;;
37305;SDS011;23193;42.656;21.170;2024-02-15T06:22:41;70.70;;;38.53;;
37305;SDS011;23193;42.656;21.170;2024-02-15T06:25:09;68.97;;;37.17;;
37305;SDS011;23193;42.656;21.170;2024-02-15T06:27:37;69.38;;;37.05;;
37305;SDS011;23193;42.656;21.170;2024-02-15T06:30:11;80.80;;;39.45;;
37305;SDS011;23193;42.656;21.170;2024-02-15T06:32:57;76.35;;;38.60;;
37305;SDS011;23193;42.656;21.170;2024-02-15T06:35:43;83.43;;;40.50;;
37305;SDS011;23193;42.656;21.170;2024-02-15T06:38:29;85.80;;;43.05;;
37305;SDS011;23193;42.656;21.170;2024-02-15T06:41:15;84.93;;;43.58;;
37305;SDS011;23193;42.656;21.170;2024-02-15T06:43:42;93.85;;;47.17;;
37305;SDS011;23193;42.656;21.170;2024-02-15T06:46:10;91.97;;;46.83;;
37305;SDS011;23193;42.656;21.170;2024-02-15T06:48:37;102.53;;;47.92;;
37305;SDS011;23193;42.656;21.170;2024-02-15T06:51:05;102.22;;;51.03;;
37305;SDS011;23193;42.656;21.170;2024-02-15T06:53:33;106.65;;;48.35;;
37305;SDS011;23193;42.656;21.170;2024-02-15T06:56:00;108.13;;;50.63;;
37305;SDS011;23193;42.656;21.170;2024-02-15T06:58:27;227.70;;;92.30;;
37305;SDS011;23193;42.656;21.170;2024-02-15T07:00:54;390.40;;;148.10;;
37305;SDS011;23193;42.656;21.170;2024-02-15T07:03:21;445.90;;;162.60;;
37305;SDS011;23193;42.656;21.170;2024-02-15T07:05:50;417.15;;;155.38;;
37305;SDS011;23193;42.656;21.170;2024-02-15T07:08:18;412.55;;;168.15;;
37305;SDS011;23193;42.656;21.170;2024-02-15T07:10:45;367.15;;;144.73;;
37305;SDS011;23193;42.656;21.170;2024-02-15T07:13:12;223.02;;;92.93;;
37305;SDS011;23193;42.656;21.170;2024-02-15T07:15:39;214.52;;;86.15;;
37305;SDS011;23193;42.656;21.170;2024-02-15T07:18:06;169.90;;;71.72;;
37305;SDS011;23193;42.656;21.170;2024-02-15T07:20:34;128.18;;;60.15;;
37305;SDS011;23193;42.656;21.170;2024-02-15T07:23:01;133.25;;;60.38;;
37305;SDS011;23193;42.656;21.170;2024-02-15T07:25:29;127.35;;;51.05;;
37305;SDS011;23193;42.656;21.170;2024-02-15T07:27:56;106.78;;;50.75;;
37305;SDS011;23193;42.656;21.170;2024-02-15T07:30:23;103.40;;;48.15;;
37305;SDS011;23193;42.656;21.170;2024-02-15T07:32:52;101.45;;;46.67;;
37305;SDS011;23193;42.656;21.170;2024-02-15T07:35:19;89.25;;;41.92;;
37305;SDS011;23193;42.656;21.170;2024-02-15T07:37:53;73.63;;;37.50;;
37305;SDS011;23193;42.656;21.170;2024-02-15T07:40:25;64.45;;;33.05;;
37305;SDS011;23193;42.656;21.170;2024-02-15T07:42:56;66.53;;;33.78;;
37305;SDS011;23193;42.656;21.170;2024-02-15T07:45:24;55.90;;;27.10;;
37305;SDS011;23193;42.656;21.170;2024-02-15T07:47:51;47.60;;;27.58;;
37305;SDS011;23193;42.656;21.170;2024-02-15T07:50:18;52.72;;;26.38;;
37305;SDS011;23193;42.656;21.170;2024-02-15T07:55:18;51.53;;;26.75;;
37305;SDS011;23193;42.656;21.170;2024-02-15T07:57:45;50.83;;;25.58;;
37305;SDS011;23193;42.656;21.170;2024-02-15T08:00:15;39.33;;;21.77;;
37305;SDS011;23193;42.656;21.170;2024-02-15T08:02:43;48.38;;;25.15;;
37305;SDS011;23193;42.656;21.170;2024-02-15T08:05:11;68.32;;;26.45;;
37305;SDS011;23193;42.656;21.170;2024-02-15T08:07:42;36.95;;;22.40;;
37305;SDS011;23193;42.656;21.170;2024-02-15T08:10:11;42.72;;;23.92;;
37305;SDS011;23193;42.656;21.170;2024-02-15T08:12:41;41.00;;;21.47;;
37305;SDS011;23193;42.656;21.170;2024-02-15T08:15:11;40.70;;;22.20;;
37305;SDS011;23193;42.656;21.170;2024-02-15T08:17:39;45.80;;;23.45;;
37305;SDS011;23193;42.656;21.170;2024-02-15T08:20:09;58.65;;;28.17;;
37305;SDS011;23193;42.656;21.170;2024-02-15T08:22:37;41.95;;;21.23;;
37305;SDS011;23193;42.656;21.170;2024-02-15T08:25:09;46.65;;;23.58;;
37305;SDS011;23193;42.656;21.170;2024-02-15T08:27:37;38.97;;;18.75;;
37305;SDS011;23193;42.656;21.170;2024-02-15T08:30:08;28.45;;;14.73;;
37305;SDS011;23193;42.656;21.170;2024-02-15T08:32:36;34.50;;;16.88;;
37305;SDS011;23193;42.656;21.170;2024-02-15T08:35:04;27.08;;;16.77;;
37305;SDS011;23193;42.656;21.170;2024-02-15T08:37:32;38.05;;;18.38;;
37305;SDS011;23193;42.656;21.170;2024-02-15T08:40:03;32.92;;;16.70;;
37305;SDS011;23193;42.656;21.170;2024-02-15T08:42:31;30.33;;;17.38;;
37305;SDS011;23193;42.656;21.170;2024-02-15T08:44:59;37.72;;;18.65;;
37305;SDS011;23193;42.656;21.170;2024-02-15T08:47:26;34.22;;;19.00;;
37305;SDS011;23193;42.656;21.170;2024-02-15T08:49:53;54.90;;;19.67;;
37305;SDS011;23193;42.656;21.170;2024-02-15T08:52:20;31.45;;;18.00;;
37305;SDS011;23193;42.656;21.170;2024-02-15T08:54:48;43.20;;;19.95;;
37305;SDS011;23193;42.656;21.170;2024-02-15T08:57:15;37.22;;;20.77;;
37305;SDS011;23193;42.656;21.170;2024-02-15T08:59:42;38.88;;;21.08;;
37305;SDS011;23193;42.656;21.170;2024-02-15T09:02:09;55.45;;;22.10;;
37305;SDS011;23193;42.656;21.170;2024-02-15T09:04:36;42.47;;;19.73;;
37305;SDS011;23193;42.656;21.170;2024-02-15T09:07:04;40.70;;;22.17;;
37305;SDS011;23193;42.656;21.170;2024-02-15T09:09:31;40.15;;;22.17;;
37305;SDS011;23193;42.656;21.170;2024-02-15T09:12:02;35.55;;;20.63;;
37305;SDS011;23193;42.656;21.170;2024-02-15T09:14:33;33.90;;;19.83;;
37305;SDS011;23193;42.656;21.170;2024-02-15T09:17:00;31.75;;;18.33;;
37305;SDS011;23193;42.656;21.170;2024-02-15T09:19:30;31.02;;;17.85;;
37305;SDS011;23193;42.656;21.170;2024-02-15T09:21:57;29.55;;;17.60;;
37305;SDS011;23193;42.656;21.170;2024-02-15T09:24:24;26.52;;;16.05;;
37305;SDS011;23193;42.656;21.170;2024-02-15T09:26:52;31.60;;;18.73;;
37305;SDS011;23193;42.656;21.170;2024-02-15T09:29:19;38.42;;;20.67;;
37305;SDS011;23193;42.656;21.170;2024-02-15T09:31:47;29.33;;;16.27;;
37305;SDS011;23193;42.656;21.170;2024-02-15T09:34:14;45.78;;;24.83;;
37305;SDS011;23193;42.656;21.170;2024-02-15T09:36:42;31.00;;;16.63;;
37305;SDS011;23193;42.656;21.170;2024-02-15T09:39:09;28.33;;;15.52;;
37305;SDS011;23193;42.656;21.170;2024-02-15T09:41:40;36.35;;;17.30;;
37305;SDS011;23193;42.656;21.170;2024-02-15T09:44:09;30.70;;;15.15;;
37305;SDS011;23193;42.656;21.170;2024-02-15T09:46:40;19.73;;;13.25;;
37305;SDS011;23193;42.656;21.170;2024-02-15T09:49:09;23.23;;;14.02;;
37305;SDS011;23193;42.656;21.170;2024-02-15T09:51:36;25.48;;;14.30;;
37305;SDS011;23193;42.656;21.170;2024-02-15T09:54:04;21.02;;;13.00;;
37305;SDS011;23193;42.656;21.170;2024-02-15T09:56:32;25.05;;;14.10;;
37305;SDS011;23193;42.656;21.170;2024-02-15T09:59:01;24.55;;;13.05;;
37305;SDS011;23193;42.656;21.170;2024-02-15T10:01:30;29.77;;;12.68;;
37305;SDS011;23193;42.656;21.170;2024-02-15T10:03:58;19.98;;;13.18;;
37305;SDS011;23193;42.656;21.170;2024-02-15T10:06:26;23.73;;;12.90;;
37305;SDS011;23193;42.656;21.170;2024-02-15T10:08:54;21.45;;;12.85;;
37305;SDS011;23193;42.656;21.170;2024-02-15T10:11:49;21.85;;;12.45;;
37305;SDS011;23193;42.656;21.170;2024-02-15T10:14:22;24.15;;;13.25;;
37305;SDS011;23193;42.656;21.170;2024-02-15T10:16:50;27.95;;;13.73;;
37305;SDS011;23193;42.656;21.170;2024-02-15T10:19:17;27.30;;;14.98;;
37305;SDS011;23193;42.656;21.170;2024-02-15T10:21:45;23.80;;;13.73;;
37305;SDS011;23193;42.656;21.170;2024-02-15T10:24:14;22.17;;;12.38;;
37305;SDS011;23193;42.656;21.170;2024-02-15T10:26:46;23.05;;;12.70;;
37305;SDS011;23193;42.656;21.170;2024-02-15T10:29:15;26.00;;;13.68;;
37305;SDS011;23193;42.656;21.170;2024-02-15T10:31:54;22.67;;;11.68;;
37305;SDS011;23193;42.656;21.170;2024-02-15T10:34:21;25.13;;;10.50;;
37305;SDS011;23193;42.656;21.170;2024-02-15T10:36:50;18.83;;;10.57;;
37305;SDS011;23193;42.656;21.170;2024-02-15T10:39:17;28.70;;;10.63;;
37305;SDS011;23193;42.656;21.170;2024-02-15T10:41:47;28.13;;;11.77;;
37305;SDS011;23193;42.656;21.170;2024-02-15T10:44:24;23.65;;;9.88;;
37305;SDS011;23193;42.656;21.170;2024-02-15T10:46:52;21.23;;;12.30;;
37305;SDS011;23193;42.656;21.170;2024-02-15T10:49:20;19.40;;;9.52;;
37305;SDS011;23193;42.656;21.170;2024-02-15T10:51:54;26.98;;;10.75;;
37305;SDS011;23193;42.656;21.170;2024-02-15T10:57:03;19.90;;;10.50;;
37305;SDS011;23193;42.656;21.170;2024-02-15T10:59:34;20.45;;;11.85;;
37305;SDS011;23193;42.656;21.170;2024-02-15T11:02:14;25.77;;;12.38;;
37305;SDS011;23193;42.656;21.170;2024-02-15T11:04:51;24.73;;;11.68;;
37305;SDS011;23193;42.656;21.170;2024-02-15T11:07:25;22.75;;;11.07;;
37305;SDS011;23193;42.656;21.170;2024-02-15T11:09:58;21.42;;;10.90;;
37305;SDS011;23193;42.656;21.170;2024-02-15T11:12:28;19.88;;;9.40;;
37305;SDS011;23193;42.656;21.170;2024-02-15T11:14:57;17.55;;;9.27;;
37305;SDS011;23193;42.656;21.170;2024-02-15T11:20:08;26.25;;;11.82;;
37305;SDS011;23193;42.656;21.170;2024-02-15T11:22:37;24.05;;;10.98;;
37305;SDS011;23193;42.656;21.170;2024-02-15T11:25:04;20.35;;;9.80;;
37305;SDS011;23193;42.656;21.170;2024-02-15T11:27:41;22.75;;;10.50;;
37305;SDS011;23193;42.656;21.170;2024-02-15T11:30:08;21.63;;;10.02;;
37305;SDS011;23193;42.656;21.170;2024-02-15T11:32:47;25.80;;;10.27;;
37305;SDS011;23193;42.656;21.170;2024-02-15T11:35:20;19.65;;;10.32;;
37305;SDS011;23193;42.656;21.170;2024-02-15T11:37:51;22.05;;;11.05;;
37305;SDS011;23193;42.656;21.170;2024-02-15T11:40:26;23.02;;;10.25;;
37305;SDS011;23193;42.656;21.170;2024-02-15T11:42:56;16.75;;;9.98;;
37305;SDS011;23193;42.656;21.170;2024-02-15T11:45:27;24.55;;;8.43;;
37305;SDS011;23193;42.656;21.170;2024-02-15T11:48:01;18.88;;;7.40;;
37305;SDS011;23193;42.656;21.170;2024-02-15T11:50:30;12.90;;;5.75;;
37305;SDS011;23193;42.656;21.170;2024-02-15T11:53:01;11.10;;;6.82;;
37305;SDS011;23193;42.656;21.170;2024-02-15T11:55:32;15.00;;;6.78;;
37305;SDS011;23193;42.656;21.170;2024-02-15T11:58:00;16.52;;;6.00;;
37305;SDS011;23193;42.656;21.170;2024-02-15T12:00:47;16.80;;;6.15;;
37305;SDS011;23193;42.656;21.170;2024-02-15T12:03:33;17.27;;;6.03;;
37305;SDS011;23193;42.656;21.170;2024-02-15T12:06:32;11.07;;;5.75;;
37305;SDS011;23193;42.656;21.170;2024-02-15T12:09:18;14.98;;;6.53;;
37305;SDS011;23193;42.656;21.170;2024-02-15T12:12:05;12.68;;;7.13;;
37305;SDS011;23193;42.656;21.170;2024-02-15T12:15:00;19.25;;;7.72;;
37305;SDS011;23193;42.656;21.170;2024-02-15T12:17:47;31.73;;;14.40;;
37305;SDS011;23193;42.656;21.170;2024-02-15T12:20:32;17.92;;;9.38;;
37305;SDS011;23193;42.656;21.170;2024-02-15T12:23:01;23.65;;;10.05;;
37305;SDS011;23193;42.656;21.170;2024-02-15T12:25:28;22.60;;;6.65;;
37305;SDS011;23193;42.656;21.170;2024-02-15T12:28:00;15.77;;;6.00;;
37305;SDS011;23193;42.656;21.170;2024-02-15T12:30:32;11.60;;;6.05;;
37305;SDS011;23193;42.656;21.170;2024-02-15T12:33:12;14.43;;;5.28;;
37305;SDS011;23193;42.656;21.170;2024-02-15T12:35:40;19.50;;;6.68;;
37305;SDS011;23193;42.656;21.170;2024-02-15T12:38:09;22.02;;;7.70;;
37305;SDS011;23193;42.656;21.170;2024-02-15T12:40:39;18.45;;;7.63;;
37305;SDS011;23193;42.656;21.170;2024-02-15T12:43:11;21.88;;;8.25;;
37305;SDS011;23193;42.656;21.170;2024-02-15T12:45:39;13.88;;;5.95;;
37305;SDS011;23193;42.656;21.170;2024-02-15T12:48:08;9.50;;;5.00;;
37305;SDS011;23193;42.656;21.170;2024-02-15T12:50:36;15.27;;;5.47;;
37305;SDS011;23193;42.656;21.170;2024-02-15T12:53:03;12.32;;;5.57;;
37305;SDS011;23193;42.656;21.170;2024-02-15T12:55:35;17.02;;;6.65;;
37305;SDS011;23193;42.656;21.170;2024-02-15T12:58:04;18.70;;;7.03;;
37305;SDS011;23193;42.656;21.170;2024-02-15T13:00:36;13.48;;;5.47;;
37305;SDS011;23193;42.656;21.170;2024-02-15T13:03:07;13.55;;;5.13;;
37305;SDS011;23193;42.656;21.170;2024-02-15T13:05:39;13.05;;;5.07;;
37305;SDS011;23193;42.656;21.170;2024-02-15T13:08:07;12.45;;;6.60;;
37305;SDS011;23193;42.656;21.170;2024-02-15T13:10:41;19.52;;;6.50;;
37305;SDS011;23193;42.656;21.170;2024-02-15T13:13:09;17.73;;;6.97;;
37305;SDS011;23193;42.656;21.170;2024-02-15T13:15:37;10.98;;;6.07;;
37305;SDS011;23193;42.656;21.170;2024-02-15T13:18:05;20.48;;;8.10;;
37305;SDS011;23193;42.656;21.170;2024-02-15T13:20:33;16.27;;;5.80;;
37305;SDS011;23193;42.656;21.170;2024-02-15T13:23:02;11.85;;;5.22;;
37305;SDS011;23193;42.656;21.170;2024-02-15T13:25:35;16.10;;;5.43;;
37305;SDS011;23193;42.656;21.170;2024-02-15T13:28:11;10.23;;;4.47;;
37305;SDS011;23193;42.656;21.170;2024-02-15T13:30:41;12.07;;;4.05;;
37305;SDS011;23193;42.656;21.170;2024-02-15T13:33:11;17.75;;;7.38;;
37305;SDS011;23193;42.656;21.170;2024-02-15T13:35:38;12.07;;;5.63;;
37305;SDS011;23193;42.656;21.170;2024-02-15T13:38:05;11.55;;;5.30;;
37305;SDS011;23193;42.656;21.170;2024-02-15T13:40:36;20.35;;;7.20;;
37305;SDS011;23193;42.656;21.170;2024-02-15T13:43:03;27.15;;;11.07;;
37305;SDS011;23193;42.656;21.170;2024-02-15T13:45:32;21.50;;;9.70;;
37305;SDS011;23193;42.656;21.170;2024-02-15T13:48:04;26.95;;;8.60;;
37305;SDS011;23193;42.656;21.170;2024-02-15T13:50:33;19.00;;;4.93;;
37305;SDS011;23193;42.656;21.170;2024-02-15T13:53:00;12.15;;;5.18;;
37305;SDS011;23193;42.656;21.170;2024-02-15T13:55:28;10.95;;;4.20;;
37305;SDS011;23193;42.656;21.170;2024-02-15T13:57:56;14.25;;;7.10;;
37305;SDS011;23193;42.656;21.170;2024-02-15T14:00:24;11.20;;;5.35;;
37305;SDS011;23193;42.656;21.170;2024-02-15T14:02:58;12.98;;;4.78;;
37305;SDS011;23193;42.656;21.170;2024-02-15T14:05:26;20.60;;;7.40;;
37305;SDS011;23193;42.656;21.170;2024-02-15T14:07:56;19.30;;;7.18;;
37305;SDS011;23193;42.656;21.170;2024-02-15T14:10:24;26.33;;;9.48;;
37305;SDS011;23193;42.656;21.170;2024-02-15T14:12:51;17.42;;;7.57;;
37305;SDS011;23193;42.656;21.170;2024-02-15T14:15:22;18.58;;;6.90;;
37305;SDS011;23193;42.656;21.170;2024-02-15T14:17:49;14.68;;;6.60;;
37305;SDS011;23193;42.656;21.170;2024-02-15T14:20:16;16.98;;;8.40;;
37305;SDS011;23193;42.656;21.170;2024-02-15T14:22:44;19.20;;;6.72;;
37305;SDS011;23193;42.656;21.170;2024-02-15T14:25:11;16.42;;;7.82;;
37305;SDS011;23193;42.656;21.170;2024-02-15T14:27:40;8.02;;;3.70;;
37305;SDS011;23193;42.656;21.170;2024-02-15T14:30:07;16.38;;;7.35;;
37305;SDS011;23193;42.656;21.170;2024-02-15T14:32:52;21.88;;;8.20;;
37305;SDS011;23193;42.656;21.170;2024-02-15T14:35:32;15.10;;;5.80;;
37305;SDS011;23193;42.656;21.170;2024-02-15T14:40:33;12.95;;;5.78;;
37305;SDS011;23193;42.656;21.170;2024-02-15T14:43:12;16.08;;;4.28;;
37305;SDS011;23193;42.656;21.170;2024-02-15T14:45:43;15.05;;;3.88;;
37305;SDS011;23193;42.656;21.170;2024-02-15T14:48:11;12.27;;;5.85;;
37305;SDS011;23193;42.656;21.170;2024-02-15T14:50:41;16.17;;;6.65;;
37305;SDS011;23193;42.656;21.170;2024-02-15T14:53:08;15.43;;;5.10;;